createdAt,value
2022-09-26T00:03:20.476Z,3.20
2022-09-26T00:08:22.226Z,2.70
2022-09-26T00:13:24.521Z,2.97
2022-09-26T00:18:26.382Z,3.50
2022-09-26T00:23:27.836Z,3.60
2022-09-26T00:28:29.596Z,3.60
2022-09-26T00:33:31.288Z,3.67
2022-09-26T00:38:33.736Z,4.05
2022-09-26T00:43:41.695Z,4.95
2022-09-26T00:48:48.907Z,4.70
2022-09-26T00:53:53.262Z,4.68
2022-09-26T00:59:08.546Z,4.47
2022-09-26T01:04:12.400Z,4.55
2022-09-26T01:09:15.167Z,5.13
2022-09-26T01:14:17.221Z,5.90
2022-09-26T01:19:40.227Z,5.82
2022-09-26T01:25:14.291Z,5.05
2022-09-26T01:30:29.192Z,4.65
2022-09-26T01:35:46.011Z,4.88
2022-09-26T01:41:02.924Z,5.43
2022-09-26T01:46:21.139Z,6.03
2022-09-26T01:51:32.750Z,5.72
2022-09-26T01:56:38.518Z,6.20
2022-09-26T02:01:44.961Z,7.45
2022-09-26T02:06:59.469Z,11.15
2022-09-26T02:12:06.673Z,8.30
2022-09-26T02:17:12.876Z,7.70
2022-09-26T02:22:14.444Z,8.15
2022-09-26T02:27:15.955Z,8.25
2022-09-26T02:32:23.501Z,7.88
2022-09-26T02:37:26.057Z,7.30
2022-09-26T02:42:36.614Z,7.28
2022-09-26T02:48:18.803Z,7.15
2022-09-26T02:53:41.705Z,5.70
2022-09-26T02:58:59.002Z,5.13
2022-09-26T03:04:08.454Z,6.22
2022-09-26T03:09:12.408Z,7.33
2022-09-26T03:14:17.996Z,4.72
2022-09-26T03:19:39.551Z,4.40
2022-09-26T03:24:42.976Z,3.92
2022-09-26T03:29:44.613Z,4.47
2022-09-26T03:34:52.245Z,4.37
2022-09-26T03:39:53.752Z,4.65
2022-09-26T03:45:12.820Z,4.35
2022-09-26T03:50:36.766Z,5.20
2022-09-26T03:55:38.413Z,4.43
2022-09-26T04:00:40.101Z,4.18
2022-09-26T04:05:43.559Z,4.38
2022-09-26T04:10:46.079Z,4.40
2022-09-26T04:15:56.048Z,4.63
2022-09-26T04:21:27.101Z,4.30
2022-09-26T04:26:28.952Z,5.05
2022-09-26T04:31:30.597Z,6.38
2022-09-26T04:36:40.774Z,4.57
2022-09-26T04:41:42.546Z,3.85
2022-09-26T04:46:44.495Z,4.60
2022-09-26T04:51:47.734Z,5.43
2022-09-26T04:56:49.798Z,4.47
2022-09-26T05:01:51.423Z,3.95
2022-09-26T05:06:59.307Z,4.00
2022-09-26T05:12:06.760Z,4.17
2022-09-26T05:17:10.146Z,3.92
2022-09-26T05:22:12.132Z,5.05
2022-09-26T05:27:15.266Z,3.95
2022-09-26T05:32:17.612Z,3.85
2022-09-26T05:37:19.313Z,3.83
2022-09-26T05:42:20.905Z,4.28
2022-09-26T05:47:23.896Z,6.03
2022-09-26T05:52:28.228Z,3.63
2022-09-26T05:57:29.774Z,4.35
2022-09-26T06:02:31.825Z,5.10
2022-09-26T06:07:50.548Z,3.38
2022-09-26T06:18:27.845Z,3.65
2022-09-26T06:23:31.230Z,3.38
2022-09-26T06:28:33.264Z,3.13
2022-09-26T06:33:34.778Z,4.93
2022-09-26T06:38:53.490Z,6.22
2022-09-26T06:43:56.776Z,4.05
2022-09-26T06:49:04.408Z,4.65
2022-09-26T06:54:23.198Z,4.63
2022-09-26T06:59:25.058Z,3.63
2022-09-26T07:04:35.925Z,5.10
2022-09-26T07:09:48.430Z,5.47
2022-09-26T07:15:09.918Z,5.63
2022-09-26T07:20:15.931Z,3.80
2022-09-26T07:25:47.298Z,3.70
2022-09-26T07:30:49.546Z,6.13
2022-09-26T07:36:04.550Z,5.90
2022-09-26T07:41:10.889Z,2.92
2022-09-26T07:46:32.432Z,5.70
2022-09-26T07:51:34.574Z,2.55
2022-09-26T07:56:42.657Z,2.80
2022-09-26T08:02:34.089Z,2.88
2022-09-26T08:07:38.365Z,2.85
2022-09-26T08:12:48.506Z,3.45
2022-09-26T08:18:19.995Z,2.38
2022-09-26T08:23:21.997Z,2.17
2022-09-26T08:28:44.016Z,3.08
2022-09-26T08:33:47.731Z,2.15
2022-09-26T08:38:49.951Z,2.58
2022-09-26T08:44:46.613Z,3.13
2022-09-26T08:50:33.201Z,6.25
2022-09-26T08:55:40.693Z,2.40
2022-09-26T09:00:42.633Z,2.72
2022-09-26T09:05:56.151Z,4.97
2022-09-26T09:11:19.482Z,4.20
2022-09-26T09:16:27.992Z,4.35
2022-09-26T09:22:21.588Z,1.42
2022-09-26T09:27:52.733Z,1.17
2022-09-26T09:32:59.335Z,1.95
2022-09-26T09:38:18.466Z,4.20
2022-09-26T09:43:37.516Z,1.30
2022-09-26T09:48:39.230Z,1.83
2022-09-26T09:54:13.724Z,3.72
2022-09-26T09:59:45.755Z,2.00
2022-09-26T10:05:00.878Z,2.35
2022-09-26T10:10:02.627Z,1.98
2022-09-26T10:15:27.130Z,2.83
2022-09-26T10:26:07.683Z,2.40
2022-09-26T10:31:11.864Z,2.20
2022-09-26T10:36:40.144Z,2.25
2022-09-26T10:41:45.068Z,1.48
2022-09-26T10:46:49.552Z,1.75
2022-09-26T10:52:27.846Z,1.25
2022-09-26T10:57:40.820Z,2.67
2022-09-26T11:02:47.064Z,1.38
2022-09-26T11:07:52.251Z,1.60
2022-09-26T11:13:22.606Z,1.33
2022-09-26T11:18:40.680Z,2.38
2022-09-26T11:23:53.951Z,1.95
2022-09-26T11:29:06.190Z,1.15
2022-09-26T11:34:26.650Z,1.08
2022-09-26T11:40:09.904Z,1.10
2022-09-26T11:45:33.672Z,0.88
2022-09-26T11:51:37.069Z,1.65
2022-09-26T11:57:08.531Z,1.20
2022-09-26T12:02:33.197Z,1.92
2022-09-26T12:08:19.142Z,1.65
2022-09-26T12:13:48.291Z,1.10
2022-09-26T12:19:15.592Z,1.98
2022-09-26T12:24:28.756Z,2.67
2022-09-26T12:30:02.702Z,1.38
2022-09-26T12:35:21.137Z,0.73
2022-09-26T12:40:33.535Z,1.52
2022-09-26T12:46:03.025Z,1.40
2022-09-26T12:51:22.256Z,2.53
2022-09-26T12:56:46.334Z,2.42
2022-09-26T13:02:02.900Z,3.78
2022-09-26T13:07:20.646Z,0.90
2022-09-26T13:12:41.222Z,1.73
2022-09-26T13:17:47.732Z,2.60
2022-09-26T13:22:55.875Z,2.97
2022-09-26T13:28:05.134Z,1.33
2022-09-26T13:33:18.387Z,4.30
2022-09-26T13:38:40.898Z,5.22
2022-09-26T13:43:56.720Z,4.05
2022-09-26T13:49:25.145Z,1.10
2022-09-26T13:59:53.086Z,2.22
2022-09-26T14:05:03.636Z,1.10
2022-09-26T14:10:18.443Z,1.48
2022-09-26T14:15:25.944Z,1.27
2022-09-26T14:20:31.767Z,1.13
2022-09-26T14:25:45.354Z,1.77
2022-09-26T14:31:22.165Z,2.88
2022-09-26T14:36:26.895Z,2.38
2022-09-26T14:41:31.980Z,1.75
2022-09-26T14:46:35.595Z,1.33
2022-09-26T14:51:41.287Z,0.60
2022-09-26T14:56:49.483Z,1.30
2022-09-26T15:01:53.201Z,1.63
2022-09-26T15:07:00.242Z,1.48
2022-09-26T15:12:08.799Z,1.77
2022-09-26T15:17:23.393Z,1.58
2022-09-26T15:22:29.347Z,0.73
2022-09-26T15:27:31.699Z,0.93
2022-09-26T15:32:33.589Z,1.23
2022-09-26T15:37:36.279Z,0.60
2022-09-26T15:42:56.327Z,1.52
2022-09-26T15:48:00.307Z,1.50
2022-09-26T15:53:02.017Z,1.00
2022-09-26T15:58:06.602Z,1.38
2022-09-26T16:04:03.576Z,1.20
2022-09-26T16:09:16.695Z,1.25
2022-09-26T16:14:26.540Z,1.35
2022-09-26T16:19:43.232Z,0.93
2022-09-26T16:24:44.709Z,1.10
2022-09-26T16:29:51.826Z,2.28
2022-09-26T16:34:53.297Z,2.40
2022-09-26T16:39:58.965Z,1.83
2022-09-26T16:45:04.751Z,2.00
2022-09-26T16:50:27.011Z,3.10
2022-09-26T16:55:32.724Z,3.00
2022-09-26T17:00:53.477Z,1.42
2022-09-26T17:05:56.841Z,1.50
2022-09-26T17:11:03.682Z,1.35
2022-09-26T17:16:06.786Z,1.67
2022-09-26T17:21:08.700Z,1.50
2022-09-26T17:26:19.901Z,2.67
2022-09-26T17:31:21.615Z,1.75
2022-09-26T17:36:28.427Z,5.32
2022-09-26T17:41:32.588Z,4.28
2022-09-26T17:46:37.391Z,3.88
2022-09-26T17:51:39.716Z,4.03
2022-09-26T17:56:41.237Z,4.82
2022-09-26T18:01:42.783Z,2.40
2022-09-26T18:06:44.723Z,3.95
2022-09-26T18:11:55.603Z,4.03
2022-09-26T18:16:58.159Z,3.00
2022-09-26T18:21:59.738Z,3.67
2022-09-26T18:27:07.102Z,2.97
2022-09-26T18:32:20.192Z,3.50
2022-09-26T18:37:21.848Z,3.30
2022-09-26T18:42:24.371Z,3.60
2022-09-26T18:47:26.394Z,10.80
2022-09-26T18:52:29.101Z,7.18
2022-09-26T18:57:49.345Z,4.65
2022-09-26T19:02:51.075Z,7.28
2022-09-26T19:07:53.136Z,2.47
2022-09-26T19:12:55.469Z,6.95
2022-09-26T19:17:57.113Z,3.17
2022-09-26T19:22:58.676Z,2.38
2022-09-26T19:28:00.279Z,1.95
2022-09-26T19:33:01.784Z,1.45
2022-09-26T19:38:16.115Z,1.40
2022-09-26T19:43:18.032Z,1.95
2022-09-26T19:48:22.096Z,2.88
2022-09-26T19:53:23.988Z,2.28
2022-09-26T19:58:27.889Z,2.03
2022-09-26T20:03:33.707Z,1.10
2022-09-26T20:08:35.269Z,0.55
2022-09-26T20:13:55.635Z,0.30
2022-09-26T20:18:57.834Z,0.32
2022-09-26T20:24:02.739Z,2.88
2022-09-26T20:29:04.238Z,0.60
2022-09-26T20:34:05.713Z,0.73
2022-09-26T20:39:13.499Z,0.60
2022-09-26T20:44:27.249Z,1.33
2022-09-26T20:49:34.258Z,1.38
2022-09-26T20:54:36.221Z,20.48
2022-09-26T20:59:37.797Z,14.10
2022-09-26T21:04:39.310Z,9.95
2022-09-26T21:09:41.775Z,14.55
2022-09-26T21:14:43.534Z,7.32
2022-09-26T21:19:45.508Z,7.47
2022-09-26T21:25:14.481Z,4.07
2022-09-26T21:30:16.995Z,1.80
2022-09-26T21:35:19.906Z,3.35
2022-09-26T21:40:26.100Z,1.30
2022-09-26T21:45:27.876Z,2.20
2022-09-26T21:50:29.646Z,1.27
2022-09-26T21:55:36.348Z,1.30
2022-09-26T22:00:37.817Z,10.45
2022-09-26T22:05:39.327Z,1.45
2022-09-26T22:10:40.995Z,1.65
2022-09-26T22:15:42.515Z,2.10
2022-09-26T22:20:44.010Z,2.30
2022-09-26T22:25:49.667Z,1.92
2022-09-26T22:30:51.353Z,1.55
2022-09-26T22:35:52.862Z,1.60
2022-09-26T22:40:59.690Z,1.77
2022-09-26T22:46:09.700Z,1.90
2022-09-26T22:51:11.652Z,2.00
2022-09-26T22:56:15.096Z,2.03
2022-09-26T23:01:24.741Z,1.98
2022-09-26T23:06:26.968Z,2.65
2022-09-26T23:11:28.702Z,2.33
2022-09-26T23:16:30.316Z,1.73
2022-09-26T23:21:31.857Z,2.20
2022-09-26T23:26:33.460Z,7.03
2022-09-26T23:31:35.572Z,1.98
2022-09-26T23:36:37.037Z,2.20
2022-09-26T23:41:38.550Z,3.35
2022-09-26T23:46:40.151Z,2.85
2022-09-26T23:51:42.356Z,2.08
2022-09-26T23:56:43.855Z,2.28
